createdAt,value
2022-09-30T03:18:24.468Z,22.57
2022-09-30T03:21:11.133Z,22.20
2022-09-30T03:24:16.095Z,21.63
2022-09-30T03:26:53.286Z,21.43
2022-09-30T03:29:28.856Z,21.60
2022-09-30T03:32:11.210Z,23.00
2022-09-30T03:34:57.846Z,21.97
2022-09-30T03:37:31.346Z,22.80
2022-09-30T03:40:05.322Z,23.23
2022-09-30T03:42:38.219Z,21.90
2022-09-30T03:45:13.471Z,21.17
2022-09-30T03:47:45.686Z,22.57
2022-09-30T03:50:18.322Z,23.90
2022-09-30T03:52:46.809Z,21.53
2022-09-30T03:55:19.686Z,23.03
2022-09-30T03:57:51.175Z,23.03
2022-09-30T04:00:22.300Z,22.13
2022-09-30T04:02:57.160Z,22.67
2022-09-30T04:05:27.787Z,22.00
2022-09-30T04:07:56.191Z,22.67
2022-09-30T04:10:26.558Z,21.83
2022-09-30T04:12:55.404Z,21.87
2022-09-30T04:15:26.551Z,21.33
2022-09-30T04:17:56.804Z,20.73
2022-09-30T04:20:25.307Z,21.07
2022-09-30T04:22:58.108Z,21.60
2022-09-30T04:25:28.646Z,22.27
2022-09-30T04:27:59.217Z,21.27
2022-09-30T04:30:32.682Z,22.23
2022-09-30T04:33:03.135Z,21.77
2022-09-30T04:35:38.607Z,21.63
2022-09-30T04:38:11.506Z,20.50
2022-09-30T04:40:40.599Z,21.03
2022-09-30T04:43:09.536Z,22.50
2022-09-30T04:45:39.401Z,22.23
2022-09-30T04:48:09.583Z,22.10
2022-09-30T04:50:38.055Z,23.10
2022-09-30T04:53:12.319Z,22.47
2022-09-30T04:55:40.869Z,23.33
2022-09-30T04:58:15.314Z,22.77
2022-09-30T05:00:47.907Z,22.23
2022-09-30T05:03:16.457Z,21.80
2022-09-30T05:05:46.815Z,21.97
2022-09-30T05:08:16.793Z,22.57
2022-09-30T05:15:31.070Z,21.20
2022-09-30T05:18:06.077Z,24.30
2022-09-30T05:25:55.198Z,21.37
2022-09-30T05:32:31.811Z,21.90
2022-09-30T05:35:00.100Z,21.90
2022-09-30T05:46:59.840Z,20.97
2022-09-30T05:49:30.769Z,20.57
2022-09-30T05:51:59.086Z,22.00
2022-09-30T05:54:27.587Z,22.37
2022-09-30T05:56:55.710Z,21.13
2022-09-30T05:59:23.973Z,22.13
2022-09-30T06:01:52.300Z,21.43
2022-09-30T06:04:22.843Z,20.80
2022-09-30T06:06:53.905Z,20.03
2022-09-30T06:09:26.726Z,20.97
2022-09-30T06:11:59.330Z,19.83
2022-09-30T06:14:30.814Z,21.57
2022-09-30T06:17:04.731Z,20.97
2022-09-30T06:19:39.427Z,19.42
2022-09-30T06:22:08.050Z,18.42
2022-09-30T06:24:38.508Z,15.85
2022-09-30T06:27:09.379Z,16.60
2022-09-30T06:29:37.900Z,17.17
2022-09-30T06:32:08.902Z,16.38
2022-09-30T06:34:38.758Z,14.63
2022-09-30T06:37:07.265Z,14.73
2022-09-30T06:39:35.536Z,15.02
2022-09-30T06:42:06.816Z,15.48
2022-09-30T06:44:51.921Z,14.35
2022-09-30T06:47:25.670Z,14.50
2022-09-30T06:50:25.004Z,13.80
2022-09-30T06:53:04.272Z,14.75
2022-09-30T06:55:36.764Z,15.10
2022-09-30T06:58:16.838Z,15.85
2022-09-30T07:00:45.280Z,15.05
2022-09-30T07:03:30.119Z,14.60
2022-09-30T07:06:02.157Z,14.38
2022-09-30T07:08:32.609Z,14.63
2022-09-30T07:11:01.613Z,13.50
2022-09-30T07:13:34.391Z,12.65
2022-09-30T07:16:03.226Z,11.25
2022-09-30T07:18:31.582Z,14.27
2022-09-30T07:21:03.143Z,11.43
2022-09-30T07:23:35.891Z,11.23
2022-09-30T07:26:08.003Z,11.07
2022-09-30T07:28:39.515Z,10.40
2022-09-30T07:34:07.336Z,11.05
2022-09-30T07:36:38.930Z,11.57
2022-09-30T07:39:09.845Z,11.63
2022-09-30T07:41:40.349Z,11.55
2022-09-30T07:44:14.572Z,11.15
2022-09-30T07:46:44.448Z,11.40
2022-09-30T07:49:16.037Z,11.30
2022-09-30T07:51:51.671Z,12.75
2022-09-30T07:54:25.372Z,11.25
2022-09-30T07:57:10.758Z,11.55
2022-09-30T07:59:42.156Z,11.60
2022-09-30T08:02:16.223Z,11.75
2022-09-30T08:04:45.095Z,12.07
2022-09-30T08:07:16.778Z,13.13
2022-09-30T08:09:46.966Z,11.52
2022-09-30T08:12:15.292Z,11.05
2022-09-30T08:14:44.892Z,11.82
2022-09-30T08:17:16.254Z,11.23
2022-09-30T08:19:46.174Z,15.25
2022-09-30T08:22:16.681Z,11.38
2022-09-30T08:24:44.925Z,11.95
2022-09-30T08:27:13.211Z,12.43
2022-09-30T08:30:00.162Z,13.20
2022-09-30T08:32:31.808Z,10.35
2022-09-30T08:35:00.032Z,10.65
2022-09-30T08:37:29.619Z,10.75
2022-09-30T08:39:59.440Z,10.65
2022-09-30T08:42:45.327Z,11.15
2022-09-30T08:45:29.052Z,10.40
2022-09-30T08:48:06.066Z,10.98
2022-09-30T08:50:46.765Z,10.00
2022-09-30T08:53:31.419Z,10.85
2022-09-30T08:56:02.831Z,12.02
2022-09-30T08:58:35.119Z,10.75
2022-09-30T09:01:14.824Z,10.68
2022-09-30T09:03:43.522Z,10.63
2022-09-30T09:06:25.672Z,10.63
2022-09-30T09:09:06.551Z,10.02
2022-09-30T09:11:49.263Z,10.98
2022-09-30T09:14:30.239Z,10.98
2022-09-30T09:17:15.622Z,10.80
2022-09-30T09:19:52.132Z,11.25
2022-09-30T09:22:24.928Z,10.27
2022-09-30T09:24:58.374Z,11.00
2022-09-30T09:27:33.996Z,10.75
2022-09-30T09:30:07.670Z,12.02
2022-09-30T09:32:36.883Z,10.18
2022-09-30T09:35:15.275Z,10.40
2022-09-30T09:38:13.760Z,8.43
2022-09-30T09:40:58.213Z,13.90
2022-09-30T09:43:36.888Z,8.70
2022-09-30T09:46:15.307Z,9.63
2022-09-30T09:48:44.687Z,9.27
2022-09-30T09:51:23.938Z,8.82
2022-09-30T09:53:58.262Z,8.13
2022-09-30T09:56:32.474Z,8.32
2022-09-30T09:59:12.890Z,6.60
2022-09-30T10:01:44.097Z,6.70
2022-09-30T10:04:17.959Z,7.05
2022-09-30T10:06:52.688Z,6.18
2022-09-30T10:09:27.665Z,6.90
2022-09-30T10:12:27.186Z,5.35
2022-09-30T10:15:00.884Z,6.13
2022-09-30T10:17:31.651Z,6.13
2022-09-30T10:20:08.113Z,6.95
2022-09-30T10:22:37.778Z,6.20
2022-09-30T10:25:31.878Z,6.30
2022-09-30T10:28:03.769Z,6.80
2022-09-30T10:30:43.156Z,5.75
2022-09-30T10:33:21.499Z,5.60
2022-09-30T10:36:06.651Z,5.35
2022-09-30T10:38:35.947Z,4.88
2022-09-30T10:41:05.910Z,6.15
2022-09-30T10:43:44.454Z,6.40
2022-09-30T10:46:25.300Z,6.30
2022-09-30T10:48:55.984Z,5.32
2022-09-30T10:51:36.253Z,4.90
2022-09-30T10:54:05.486Z,4.68
2022-09-30T10:56:42.443Z,3.95
2022-09-30T10:59:33.959Z,4.20
2022-09-30T11:05:04.009Z,4.72
2022-09-30T11:07:38.052Z,6.47
2022-09-30T11:10:15.320Z,6.15
2022-09-30T11:12:48.297Z,4.78
2022-09-30T11:15:25.208Z,5.50
2022-09-30T11:18:00.492Z,4.47
2022-09-30T11:20:33.282Z,6.75
2022-09-30T11:23:05.409Z,5.85
2022-09-30T11:25:44.541Z,6.20
2022-09-30T11:28:33.032Z,4.25
2022-09-30T11:31:14.094Z,3.90
2022-09-30T11:33:57.018Z,4.00
2022-09-30T11:36:31.722Z,4.28
2022-09-30T11:39:16.172Z,3.35
2022-09-30T11:41:50.513Z,3.80
2022-09-30T11:44:30.891Z,4.32
2022-09-30T11:47:13.265Z,4.80
2022-09-30T11:49:53.464Z,4.07
2022-09-30T11:52:29.169Z,4.45
2022-09-30T11:55:15.309Z,4.10
2022-09-30T11:57:53.196Z,3.83
2022-09-30T12:00:22.216Z,3.58
2022-09-30T12:02:54.342Z,3.45
2022-09-30T12:05:28.015Z,4.55
2022-09-30T12:08:01.479Z,4.90
2022-09-30T12:10:36.105Z,3.78
2022-09-30T12:13:07.519Z,4.10
2022-09-30T12:15:37.504Z,4.38
2022-09-30T12:18:15.180Z,3.88
2022-09-30T12:20:47.466Z,3.60
2022-09-30T12:23:21.020Z,4.00
2022-09-30T12:25:54.800Z,3.60
2022-09-30T12:28:48.964Z,3.72
2022-09-30T12:31:37.827Z,3.90
2022-09-30T12:34:21.637Z,3.53
2022-09-30T12:37:11.503Z,3.63
2022-09-30T12:40:06.944Z,4.07
2022-09-30T12:42:58.609Z,3.78
2022-09-30T12:46:03.521Z,4.65
2022-09-30T12:48:37.871Z,9.45
2022-09-30T12:51:08.532Z,4.20
2022-09-30T12:53:39.755Z,3.83
2022-09-30T12:56:09.997Z,3.63
2022-09-30T12:58:44.042Z,5.10
2022-09-30T13:01:16.904Z,3.80
2022-09-30T13:03:50.045Z,3.95
2022-09-30T13:06:21.786Z,3.40
2022-09-30T13:09:09.690Z,3.38
2022-09-30T13:11:41.166Z,3.53
2022-09-30T13:14:34.424Z,3.83
2022-09-30T13:17:36.732Z,3.70
2022-09-30T13:20:52.402Z,3.40
2022-09-30T13:23:40.856Z,3.30
2022-09-30T13:26:49.829Z,3.45
2022-09-30T13:29:39.830Z,3.55
2022-09-30T13:32:11.578Z,4.20
2022-09-30T13:34:58.049Z,3.90
2022-09-30T13:37:40.810Z,4.15
2022-09-30T13:40:37.522Z,4.40
2022-09-30T13:43:16.222Z,4.38
2022-09-30T13:45:48.521Z,4.32
2022-09-30T13:48:20.624Z,3.90
2022-09-30T13:50:52.764Z,3.85
2022-09-30T13:53:29.946Z,3.47
2022-09-30T13:56:02.962Z,3.92
2022-09-30T13:59:10.258Z,3.97
2022-09-30T14:02:07.439Z,3.55
2022-09-30T14:04:55.815Z,3.95
2022-09-30T14:07:41.392Z,3.78
2022-09-30T14:10:31.197Z,3.47
2022-09-30T14:13:15.030Z,3.40
2022-09-30T14:15:57.349Z,4.03
2022-09-30T14:18:45.458Z,5.20
2022-09-30T14:21:23.564Z,4.75
2022-09-30T14:24:10.152Z,4.10
2022-09-30T14:26:59.331Z,3.67
2022-09-30T14:29:37.801Z,3.80
2022-09-30T14:32:15.332Z,4.28
2022-09-30T14:34:45.396Z,4.30
2022-09-30T14:37:21.064Z,3.78
2022-09-30T14:39:52.463Z,4.05
2022-09-30T14:42:33.719Z,5.28
2022-09-30T14:45:09.042Z,4.70
2022-09-30T14:47:40.995Z,6.35
2022-09-30T14:50:17.177Z,5.70
2022-09-30T14:52:46.631Z,7.43
2022-09-30T14:55:23.621Z,13.48
2022-09-30T14:57:52.061Z,9.00
2022-09-30T15:00:31.661Z,6.22
2022-09-30T15:03:01.087Z,8.48
2022-09-30T15:05:29.750Z,6.22
2022-09-30T15:08:02.859Z,4.50
2022-09-30T15:10:32.177Z,4.00
2022-09-30T15:13:01.060Z,4.50
2022-09-30T15:15:38.923Z,4.22
2022-09-30T15:18:27.579Z,5.35
2022-09-30T15:20:59.069Z,9.50
2022-09-30T15:23:30.997Z,9.68
2022-09-30T15:26:00.181Z,7.72
2022-09-30T15:28:28.474Z,6.63
2022-09-30T15:31:00.483Z,6.47
2022-09-30T15:33:31.978Z,5.95
2022-09-30T15:36:09.012Z,5.95
2022-09-30T15:38:38.514Z,7.07
2022-09-30T15:41:08.814Z,6.35
2022-09-30T15:43:42.954Z,6.40
2022-09-30T15:46:28.176Z,6.47
2022-09-30T15:48:59.675Z,6.70
2022-09-30T15:51:31.388Z,6.47
2022-09-30T15:54:01.613Z,5.35
2022-09-30T15:56:36.191Z,5.30
2022-09-30T15:59:06.840Z,4.68
2022-09-30T16:01:52.933Z,5.80
2022-09-30T16:04:26.429Z,5.97
2022-09-30T16:06:56.785Z,4.60
2022-09-30T16:09:34.221Z,4.13
2022-09-30T16:12:08.997Z,5.93
2022-09-30T16:14:45.431Z,5.95
2022-09-30T16:17:20.764Z,4.50
2022-09-30T16:19:53.235Z,5.22
2022-09-30T16:22:37.682Z,5.40
2022-09-30T16:25:16.721Z,4.43
2022-09-30T16:27:45.328Z,4.45
2022-09-30T16:30:18.460Z,4.28
2022-09-30T16:32:53.399Z,4.32
2022-09-30T16:35:23.965Z,4.65
2022-09-30T16:38:00.105Z,4.20
2022-09-30T16:40:30.183Z,4.30
2022-09-30T16:43:07.162Z,5.35
2022-09-30T16:45:44.505Z,7.75
2022-09-30T16:48:18.077Z,6.93
2022-09-30T16:50:51.725Z,7.88
2022-09-30T16:53:23.354Z,8.00
2022-09-30T16:55:53.270Z,8.50
2022-09-30T16:58:21.846Z,7.32
2022-09-30T17:00:51.568Z,7.68
2022-09-30T17:03:24.278Z,7.85
2022-09-30T17:05:53.412Z,7.80
2022-09-30T17:08:23.866Z,8.73
2022-09-30T17:10:52.581Z,10.15
2022-09-30T17:13:21.506Z,13.25
2022-09-30T17:15:51.160Z,8.13
2022-09-30T17:18:22.201Z,13.30
2022-09-30T17:20:53.860Z,8.45
2022-09-30T17:23:23.323Z,7.43
2022-09-30T17:25:58.184Z,7.40
2022-09-30T17:28:28.111Z,10.93
2022-09-30T17:30:57.016Z,12.40
2022-09-30T17:33:32.454Z,8.63
2022-09-30T17:36:02.361Z,9.82
2022-09-30T17:38:31.240Z,9.15
2022-09-30T17:41:17.478Z,10.25
2022-09-30T17:43:47.415Z,10.68
2022-09-30T17:46:23.931Z,8.45
2022-09-30T17:48:56.777Z,9.35
2022-09-30T17:51:27.347Z,8.93
2022-09-30T17:53:57.128Z,9.50
2022-09-30T17:56:29.045Z,10.43
2022-09-30T17:58:58.577Z,9.93
2022-09-30T18:01:27.050Z,10.07
2022-09-30T18:04:01.143Z,9.15
2022-09-30T18:06:31.560Z,9.10
2022-09-30T18:09:02.143Z,8.15
2022-09-30T18:11:31.214Z,7.93
2022-09-30T18:14:02.109Z,7.32
2022-09-30T18:16:33.874Z,9.90
2022-09-30T18:19:06.113Z,14.05
2022-09-30T18:21:39.770Z,13.63
2022-09-30T18:24:09.702Z,15.02
2022-09-30T18:26:40.104Z,13.88
2022-09-30T18:29:08.623Z,10.63
2022-09-30T18:31:38.941Z,8.93
2022-09-30T18:34:09.047Z,9.13
2022-09-30T18:36:38.952Z,8.93
2022-09-30T18:39:07.152Z,10.68
2022-09-30T18:41:37.393Z,10.07
2022-09-30T18:44:07.280Z,8.63
2022-09-30T18:46:37.243Z,7.25
2022-09-30T18:49:05.901Z,7.32
2022-09-30T18:51:36.098Z,8.18
2022-09-30T18:54:05.895Z,7.28
2022-09-30T18:56:34.434Z,7.75
2022-09-30T18:59:04.667Z,6.88
2022-09-30T19:01:34.329Z,6.85
2022-09-30T19:04:04.522Z,6.22
2022-09-30T19:06:33.015Z,6.75
2022-09-30T19:09:02.624Z,6.18
2022-09-30T19:11:31.606Z,7.65
2022-09-30T19:14:08.767Z,8.48
2022-09-30T19:16:40.135Z,8.80
2022-09-30T19:19:10.422Z,8.40
2022-09-30T19:21:39.718Z,7.55
2022-09-30T19:24:10.038Z,7.15
2022-09-30T19:26:40.338Z,7.40
2022-09-30T19:29:09.774Z,7.22
2022-09-30T19:31:38.466Z,7.57
2022-09-30T19:34:07.365Z,8.57
2022-09-30T19:36:49.176Z,9.02
2022-09-30T19:39:20.433Z,8.18
2022-09-30T19:41:48.691Z,9.15
2022-09-30T19:44:20.263Z,9.45
2022-09-30T19:46:50.516Z,12.43
2022-09-30T19:49:19.089Z,19.75
2022-09-30T19:51:47.455Z,19.60
2022-09-30T19:54:15.693Z,22.27
2022-09-30T19:56:45.430Z,19.23
2022-09-30T19:59:13.815Z,14.27
2022-09-30T20:01:42.096Z,12.57
2022-09-30T20:04:10.867Z,10.05
2022-09-30T20:06:39.249Z,9.85
2022-09-30T20:09:08.745Z,10.20
2022-09-30T20:11:39.084Z,9.77
2022-09-30T20:14:23.699Z,9.55
2022-09-30T20:16:52.498Z,9.13
2022-09-30T20:19:22.387Z,9.90
2022-09-30T20:21:51.229Z,10.25
2022-09-30T20:24:21.005Z,9.38
2022-09-30T20:26:50.385Z,8.70
2022-09-30T20:29:20.825Z,8.95
2022-09-30T20:31:49.410Z,10.15
2022-09-30T20:34:21.623Z,8.98
2022-09-30T20:36:49.764Z,9.43
2022-09-30T20:39:18.012Z,8.68
2022-09-30T20:41:47.330Z,9.02
2022-09-30T20:44:17.109Z,8.95
2022-09-30T20:46:46.551Z,9.23
2022-09-30T20:49:14.697Z,9.13
2022-09-30T20:51:43.983Z,10.10
2022-09-30T20:54:12.312Z,12.95
2022-09-30T20:57:05.779Z,11.63
2022-09-30T20:59:28.802Z,11.57
2022-09-30T21:01:58.484Z,11.15
2022-09-30T21:04:26.805Z,10.25
2022-09-30T21:07:09.975Z,11.32
2022-09-30T21:09:43.708Z,11.93
2022-09-30T21:12:20.141Z,12.73
2022-09-30T21:14:48.356Z,11.45
2022-09-30T21:17:22.653Z,11.73
2022-09-30T21:20:35.484Z,11.38
2022-09-30T21:23:05.826Z,12.52
2022-09-30T21:25:44.777Z,11.88
2022-09-30T21:28:44.474Z,11.95
2022-09-30T21:31:44.763Z,11.20
2022-09-30T21:34:15.423Z,11.55
2022-09-30T21:36:53.834Z,11.70
2022-09-30T21:39:28.901Z,11.52
2022-09-30T21:41:57.657Z,11.32
2022-09-30T21:44:26.218Z,11.70
2022-09-30T21:46:54.313Z,11.23
2022-09-30T21:49:25.234Z,11.50
2022-09-30T21:51:54.022Z,12.00
2022-09-30T21:54:23.429Z,12.02
2022-09-30T21:56:51.528Z,10.82
2022-09-30T21:59:19.795Z,11.82
2022-09-30T22:01:47.930Z,11.93
2022-09-30T22:04:16.137Z,11.30
2022-09-30T22:06:45.631Z,11.82
2022-09-30T22:09:14.204Z,11.52
2022-09-30T22:11:44.017Z,11.05
2022-09-30T22:14:12.426Z,11.48
2022-09-30T22:16:40.658Z,10.73
2022-09-30T22:19:10.076Z,10.25
2022-09-30T22:21:41.044Z,10.73
2022-09-30T22:24:11.448Z,10.57
2022-09-30T22:26:41.678Z,11.13
2022-09-30T22:29:12.516Z,11.15
2022-09-30T22:31:41.100Z,10.38
2022-09-30T22:34:31.629Z,10.23
2022-09-30T22:37:17.767Z,11.65
2022-09-30T22:39:47.274Z,11.30
2022-09-30T22:42:15.737Z,12.45
2022-09-30T22:44:44.083Z,12.35
2022-09-30T22:47:12.527Z,10.82
2022-09-30T22:49:41.582Z,10.32
2022-09-30T22:52:10.366Z,10.68
2022-09-30T22:54:38.944Z,11.32
2022-09-30T22:57:10.024Z,11.30
2022-09-30T22:59:38.297Z,11.25
2022-09-30T23:02:06.803Z,13.85
2022-09-30T23:04:36.325Z,14.15
2022-09-30T23:07:08.241Z,15.25
2022-09-30T23:09:36.343Z,15.25
